sensor_id;sensor_type;location;lat;lon;timestamp;P1;durP1;ratioP1;P2;durP2;ratioP2
14306;SDS011;7237;49.500;11.400;2024-02-14T00:00:10;8.03;;;3.37;;
14306;SDS011;7237;49.500;11.400;2024-02-14T00:02:38;6.63;;;2.97;;
14306;SDS011;7237;49.500;11.400;2024-02-14T00:05:06;4.40;;;3.33;;
14306;SDS011;7237;49.500;11.400;2024-02-14T00:07:35;4.27;;;3.57;;
14306;SDS011;7237;49.500;11.400;2024-02-14T00:10:02;4.07;;;3.57;;
14306;SDS011;7237;49.500;11.400;2024-02-14T00:12:30;3.87;;;2.93;;
14306;SDS011;7237;49.500;11.400;2024-02-14T00:14:57;6.00;;;3.73;;
14306;SDS011;7237;49.500;11.400;2024-02-14T00:17:26;5.40;;;3.57;;
14306;SDS011;7237;49.500;11.400;2024-02-14T00:19:53;4.57;;;3.53;;
14306;SDS011;7237;49.500;11.400;2024-02-14T00:22:20;8.47;;;4.20;;
14306;SDS011;7237;49.500;11.400;2024-02-14T00:24:47;7.17;;;3.80;;
14306;SDS011;7237;49.500;11.400;2024-02-14T00:27:15;9.97;;;3.50;;
14306;SDS011;7237;49.500;11.400;2024-02-14T00:29:42;4.33;;;3.93;;
14306;SDS011;7237;49.500;11.400;2024-02-14T00:32:11;4.53;;;3.63;;
14306;SDS011;7237;49.500;11.400;2024-02-14T00:34:39;8.93;;;3.87;;
14306;SDS011;7237;49.500;11.400;2024-02-14T00:37:07;5.90;;;3.87;;
14306;SDS011;7237;49.500;11.400;2024-02-14T00:39:35;8.60;;;4.03;;
14306;SDS011;7237;49.500;11.400;2024-02-14T00:42:03;5.60;;;3.87;;
14306;SDS011;7237;49.500;11.400;2024-02-14T00:44:30;5.17;;;3.50;;
14306;SDS011;7237;49.500;11.400;2024-02-14T00:46:57;5.63;;;3.70;;
14306;SDS011;7237;49.500;11.400;2024-02-14T00:49:26;6.97;;;3.60;;
14306;SDS011;7237;49.500;11.400;2024-02-14T00:51:54;8.13;;;3.90;;
14306;SDS011;7237;49.500;11.400;2024-02-14T00:54:21;10.97;;;3.83;;
14306;SDS011;7237;49.500;11.400;2024-02-14T00:56:49;6.07;;;3.53;;
14306;SDS011;7237;49.500;11.400;2024-02-14T00:59:16;6.07;;;3.80;;
14306;SDS011;7237;49.500;11.400;2024-02-14T01:01:43;8.13;;;3.67;;
14306;SDS011;7237;49.500;11.400;2024-02-14T01:04:10;4.33;;;3.40;;
14306;SDS011;7237;49.500;11.400;2024-02-14T01:06:37;4.70;;;3.57;;
14306;SDS011;7237;49.500;11.400;2024-02-14T01:09:06;7.83;;;3.87;;
14306;SDS011;7237;49.500;11.400;2024-02-14T01:11:33;5.57;;;3.73;;
14306;SDS011;7237;49.500;11.400;2024-02-14T01:14:01;7.60;;;3.77;;
14306;SDS011;7237;49.500;11.400;2024-02-14T01:16:28;6.90;;;3.80;;
14306;SDS011;7237;49.500;11.400;2024-02-14T01:18:55;4.93;;;3.43;;
14306;SDS011;7237;49.500;11.400;2024-02-14T01:21:22;6.93;;;3.80;;
14306;SDS011;7237;49.500;11.400;2024-02-14T01:23:49;9.17;;;4.20;;
14306;SDS011;7237;49.500;11.400;2024-02-14T01:26:18;6.63;;;3.67;;
14306;SDS011;7237;49.500;11.400;2024-02-14T01:28:46;6.50;;;3.10;;
14306;SDS011;7237;49.500;11.400;2024-02-14T01:31:13;5.23;;;3.37;;
14306;SDS011;7237;49.500;11.400;2024-02-14T01:33:40;5.17;;;3.40;;
14306;SDS011;7237;49.500;11.400;2024-02-14T01:36:08;12.53;;;3.77;;
14306;SDS011;7237;49.500;11.400;2024-02-14T01:38:35;4.37;;;3.13;;
14306;SDS011;7237;49.500;11.400;2024-02-14T01:41:02;6.23;;;3.67;;
14306;SDS011;7237;49.500;11.400;2024-02-14T01:43:31;6.80;;;4.00;;
14306;SDS011;7237;49.500;11.400;2024-02-14T01:46:02;7.77;;;3.70;;
14306;SDS011;7237;49.500;11.400;2024-02-14T01:48:31;5.23;;;3.40;;
14306;SDS011;7237;49.500;11.400;2024-02-14T01:50:58;5.60;;;3.70;;
14306;SDS011;7237;49.500;11.400;2024-02-14T01:53:26;5.10;;;3.70;;
14306;SDS011;7237;49.500;11.400;2024-02-14T01:55:55;5.20;;;3.77;;
14306;SDS011;7237;49.500;11.400;2024-02-14T01:58:22;7.77;;;4.30;;
14306;SDS011;7237;49.500;11.400;2024-02-14T02:00:50;6.03;;;3.10;;
14306;SDS011;7237;49.500;11.400;2024-02-14T02:03:20;7.90;;;3.67;;
14306;SDS011;7237;49.500;11.400;2024-02-14T02:05:48;4.53;;;3.53;;
14306;SDS011;7237;49.500;11.400;2024-02-14T02:08:15;4.17;;;3.43;;
14306;SDS011;7237;49.500;11.400;2024-02-14T02:10:42;4.90;;;2.87;;
14306;SDS011;7237;49.500;11.400;2024-02-14T02:13:09;4.73;;;3.20;;
14306;SDS011;7237;49.500;11.400;2024-02-14T02:15:36;5.43;;;3.03;;
14306;SDS011;7237;49.500;11.400;2024-02-14T02:18:05;5.07;;;3.20;;
14306;SDS011;7237;49.500;11.400;2024-02-14T02:20:32;3.60;;;2.67;;
14306;SDS011;7237;49.500;11.400;2024-02-14T02:23:01;5.87;;;3.10;;
14306;SDS011;7237;49.500;11.400;2024-02-14T02:25:28;4.37;;;2.87;;
14306;SDS011;7237;49.500;11.400;2024-02-14T02:27:55;8.77;;;3.20;;
14306;SDS011;7237;49.500;11.400;2024-02-14T02:30:22;6.43;;;3.13;;
14306;SDS011;7237;49.500;11.400;2024-02-14T02:32:50;5.47;;;3.73;;
14306;SDS011;7237;49.500;11.400;2024-02-14T02:35:17;7.57;;;3.10;;
14306;SDS011;7237;49.500;11.400;2024-02-14T02:37:45;4.13;;;3.07;;
14306;SDS011;7237;49.500;11.400;2024-02-14T02:40:14;4.83;;;3.30;;
14306;SDS011;7237;49.500;11.400;2024-02-14T02:42:42;6.27;;;3.83;;
14306;SDS011;7237;49.500;11.400;2024-02-14T02:45:10;5.73;;;3.33;;
14306;SDS011;7237;49.500;11.400;2024-02-14T02:47:37;10.13;;;3.30;;
14306;SDS011;7237;49.500;11.400;2024-02-14T02:50:05;5.07;;;3.33;;
14306;SDS011;7237;49.500;11.400;2024-02-14T02:52:33;5.63;;;3.17;;
14306;SDS011;7237;49.500;11.400;2024-02-14T02:55:00;4.77;;;3.30;;
14306;SDS011;7237;49.500;11.400;2024-02-14T02:57:28;4.77;;;3.50;;
14306;SDS011;7237;49.500;11.400;2024-02-14T02:59:57;5.33;;;3.37;;
14306;SDS011;7237;49.500;11.400;2024-02-14T03:02:24;7.20;;;3.47;;
14306;SDS011;7237;49.500;11.400;2024-02-14T03:04:51;3.37;;;2.77;;
14306;SDS011;7237;49.500;11.400;2024-02-14T03:07:18;6.97;;;3.27;;
14306;SDS011;7237;49.500;11.400;2024-02-14T03:09:45;5.90;;;2.90;;
14306;SDS011;7237;49.500;11.400;2024-02-14T03:12:12;4.30;;;2.87;;
14306;SDS011;7237;49.500;11.400;2024-02-14T03:14:42;6.97;;;3.23;;
14306;SDS011;7237;49.500;11.400;2024-02-14T03:17:10;7.63;;;3.00;;
14306;SDS011;7237;49.500;11.400;2024-02-14T03:19:37;6.67;;;3.03;;
14306;SDS011;7237;49.500;11.400;2024-02-14T03:22:05;5.93;;;3.23;;
14306;SDS011;7237;49.500;11.400;2024-02-14T03:24:33;4.37;;;2.60;;
14306;SDS011;7237;49.500;11.400;2024-02-14T03:27:02;5.27;;;3.00;;
14306;SDS011;7237;49.500;11.400;2024-02-14T03:29:30;5.63;;;2.77;;
14306;SDS011;7237;49.500;11.400;2024-02-14T03:31:59;7.23;;;2.87;;
14306;SDS011;7237;49.500;11.400;2024-02-14T03:34:29;13.67;;;3.27;;
14306;SDS011;7237;49.500;11.400;2024-02-14T03:36:58;6.57;;;3.17;;
14306;SDS011;7237;49.500;11.400;2024-02-14T03:39:25;2.80;;;2.50;;
14306;SDS011;7237;49.500;11.400;2024-02-14T03:41:51;6.57;;;2.90;;
14306;SDS011;7237;49.500;11.400;2024-02-14T03:44:19;4.50;;;3.03;;
14306;SDS011;7237;49.500;11.400;2024-02-14T03:46:46;3.90;;;2.73;;
14306;SDS011;7237;49.500;11.400;2024-02-14T03:49:15;3.67;;;2.67;;
14306;SDS011;7237;49.500;11.400;2024-02-14T03:51:42;3.73;;;2.93;;
14306;SDS011;7237;49.500;11.400;2024-02-14T03:54:09;6.57;;;2.97;;
14306;SDS011;7237;49.500;11.400;2024-02-14T03:56:36;4.90;;;2.97;;
14306;SDS011;7237;49.500;11.400;2024-02-14T03:59:03;3.23;;;2.53;;
14306;SDS011;7237;49.500;11.400;2024-02-14T04:01:32;5.90;;;2.97;;
14306;SDS011;7237;49.500;11.400;2024-02-14T04:04:00;3.10;;;2.40;;
14306;SDS011;7237;49.500;11.400;2024-02-14T04:06:29;6.60;;;2.70;;
14306;SDS011;7237;49.500;11.400;2024-02-14T04:08:57;5.00;;;2.67;;
14306;SDS011;7237;49.500;11.400;2024-02-14T04:11:24;3.93;;;2.60;;
14306;SDS011;7237;49.500;11.400;2024-02-14T04:13:51;5.87;;;2.43;;
14306;SDS011;7237;49.500;11.400;2024-02-14T04:16:19;2.83;;;2.07;;
14306;SDS011;7237;49.500;11.400;2024-02-14T04:18:47;5.30;;;2.60;;
14306;SDS011;7237;49.500;11.400;2024-02-14T04:21:14;6.87;;;2.47;;
14306;SDS011;7237;49.500;11.400;2024-02-14T04:23:42;3.07;;;2.40;;
14306;SDS011;7237;49.500;11.400;2024-02-14T04:26:09;3.47;;;2.43;;
14306;SDS011;7237;49.500;11.400;2024-02-14T04:28:38;8.70;;;2.80;;
14306;SDS011;7237;49.500;11.400;2024-02-14T04:31:06;8.53;;;2.90;;
14306;SDS011;7237;49.500;11.400;2024-02-14T04:33:33;4.20;;;2.57;;
14306;SDS011;7237;49.500;11.400;2024-02-14T04:36:00;2.70;;;2.20;;
14306;SDS011;7237;49.500;11.400;2024-02-14T04:38:28;4.83;;;2.60;;
14306;SDS011;7237;49.500;11.400;2024-02-14T04:40:57;3.30;;;2.37;;
14306;SDS011;7237;49.500;11.400;2024-02-14T04:43:25;7.10;;;2.17;;
14306;SDS011;7237;49.500;11.400;2024-02-14T04:45:52;3.93;;;2.80;;
14306;SDS011;7237;49.500;11.400;2024-02-14T04:48:19;2.47;;;2.20;;
14306;SDS011;7237;49.500;11.400;2024-02-14T04:50:47;4.10;;;2.40;;
14306;SDS011;7237;49.500;11.400;2024-02-14T04:53:14;6.07;;;2.90;;
14306;SDS011;7237;49.500;11.400;2024-02-14T04:55:42;4.43;;;2.63;;
14306;SDS011;7237;49.500;11.400;2024-02-14T04:58:10;3.83;;;2.27;;
14306;SDS011;7237;49.500;11.400;2024-02-14T05:00:37;4.23;;;3.33;;
14306;SDS011;7237;49.500;11.400;2024-02-14T05:03:05;4.87;;;2.67;;
14306;SDS011;7237;49.500;11.400;2024-02-14T05:05:32;3.67;;;2.60;;
14306;SDS011;7237;49.500;11.400;2024-02-14T05:07:59;4.67;;;2.40;;
14306;SDS011;7237;49.500;11.400;2024-02-14T05:10:27;6.70;;;2.80;;
14306;SDS011;7237;49.500;11.400;2024-02-14T05:12:54;4.33;;;2.60;;
14306;SDS011;7237;49.500;11.400;2024-02-14T05:15:22;5.77;;;2.40;;
14306;SDS011;7237;49.500;11.400;2024-02-14T05:17:50;4.83;;;2.50;;
14306;SDS011;7237;49.500;11.400;2024-02-14T05:20:17;6.73;;;2.60;;
14306;SDS011;7237;49.500;11.400;2024-02-14T05:22:44;6.43;;;2.57;;
14306;SDS011;7237;49.500;11.400;2024-02-14T05:25:11;7.63;;;2.10;;
14306;SDS011;7237;49.500;11.400;2024-02-14T05:27:38;3.17;;;2.60;;
14306;SDS011;7237;49.500;11.400;2024-02-14T05:30:06;6.97;;;2.40;;
14306;SDS011;7237;49.500;11.400;2024-02-14T05:32:35;6.10;;;2.87;;
14306;SDS011;7237;49.500;11.400;2024-02-14T05:35:03;3.93;;;2.87;;
14306;SDS011;7237;49.500;11.400;2024-02-14T05:37:31;5.30;;;2.50;;
14306;SDS011;7237;49.500;11.400;2024-02-14T05:39:58;3.27;;;2.77;;
14306;SDS011;7237;49.500;11.400;2024-02-14T05:42:25;4.37;;;2.70;;
14306;SDS011;7237;49.500;11.400;2024-02-14T05:44:52;3.43;;;2.20;;
14306;SDS011;7237;49.500;11.400;2024-02-14T05:47:19;3.60;;;2.40;;
14306;SDS011;7237;49.500;11.400;2024-02-14T05:49:48;4.20;;;2.47;;
14306;SDS011;7237;49.500;11.400;2024-02-14T05:52:15;4.27;;;2.20;;
14306;SDS011;7237;49.500;11.400;2024-02-14T05:54:43;4.53;;;2.43;;
14306;SDS011;7237;49.500;11.400;2024-02-14T05:57:10;6.30;;;2.20;;
14306;SDS011;7237;49.500;11.400;2024-02-14T05:59:37;4.30;;;2.70;;
14306;SDS011;7237;49.500;11.400;2024-02-14T06:02:04;3.50;;;2.37;;
14306;SDS011;7237;49.500;11.400;2024-02-14T06:04:33;5.17;;;2.50;;
14306;SDS011;7237;49.500;11.400;2024-02-14T06:07:02;2.70;;;2.43;;
14306;SDS011;7237;49.500;11.400;2024-02-14T06:09:31;2.63;;;2.43;;
14306;SDS011;7237;49.500;11.400;2024-02-14T06:11:58;4.03;;;2.47;;
14306;SDS011;7237;49.500;11.400;2024-02-14T06:14:25;4.20;;;2.40;;
14306;SDS011;7237;49.500;11.400;2024-02-14T06:16:54;2.43;;;2.23;;
14306;SDS011;7237;49.500;11.400;2024-02-14T06:19:21;6.03;;;2.90;;
14306;SDS011;7237;49.500;11.400;2024-02-14T06:21:48;3.63;;;2.90;;
14306;SDS011;7237;49.500;11.400;2024-02-14T06:24:17;2.90;;;2.67;;
14306;SDS011;7237;49.500;11.400;2024-02-14T06:26:44;4.60;;;2.70;;
14306;SDS011;7237;49.500;11.400;2024-02-14T06:29:11;2.77;;;2.57;;
14306;SDS011;7237;49.500;11.400;2024-02-14T06:31:38;4.43;;;2.77;;
14306;SDS011;7237;49.500;11.400;2024-02-14T06:34:05;3.63;;;2.30;;
14306;SDS011;7237;49.500;11.400;2024-02-14T06:36:33;3.63;;;2.70;;
14306;SDS011;7237;49.500;11.400;2024-02-14T06:39:00;4.33;;;2.73;;
14306;SDS011;7237;49.500;11.400;2024-02-14T06:41:28;6.27;;;3.10;;
14306;SDS011;7237;49.500;11.400;2024-02-14T06:43:56;8.93;;;3.00;;
14306;SDS011;7237;49.500;11.400;2024-02-14T06:46:23;4.77;;;2.70;;
14306;SDS011;7237;49.500;11.400;2024-02-14T06:48:50;3.73;;;2.70;;
14306;SDS011;7237;49.500;11.400;2024-02-14T06:51:17;8.50;;;3.27;;
14306;SDS011;7237;49.500;11.400;2024-02-14T06:53:45;4.13;;;2.93;;
14306;SDS011;7237;49.500;11.400;2024-02-14T06:56:12;6.50;;;3.33;;
14306;SDS011;7237;49.500;11.400;2024-02-14T06:58:41;8.67;;;3.13;;
14306;SDS011;7237;49.500;11.400;2024-02-14T07:01:08;4.93;;;2.93;;
14306;SDS011;7237;49.500;11.400;2024-02-14T07:03:37;4.37;;;3.60;;
14306;SDS011;7237;49.500;11.400;2024-02-14T07:06:05;4.43;;;3.23;;
14306;SDS011;7237;49.500;11.400;2024-02-14T07:08:32;5.60;;;3.20;;
14306;SDS011;7237;49.500;11.400;2024-02-14T07:10:59;5.20;;;2.97;;
14306;SDS011;7237;49.500;11.400;2024-02-14T07:13:26;5.00;;;3.30;;
14306;SDS011;7237;49.500;11.400;2024-02-14T07:15:55;6.93;;;3.10;;
14306;SDS011;7237;49.500;11.400;2024-02-14T07:18:22;3.53;;;3.10;;
14306;SDS011;7237;49.500;11.400;2024-02-14T07:20:49;3.90;;;3.20;;
14306;SDS011;7237;49.500;11.400;2024-02-14T07:23:16;3.97;;;2.90;;
14306;SDS011;7237;49.500;11.400;2024-02-14T07:25:44;3.50;;;2.90;;
14306;SDS011;7237;49.500;11.400;2024-02-14T07:28:11;5.57;;;3.07;;
14306;SDS011;7237;49.500;11.400;2024-02-14T07:30:38;5.57;;;3.40;;
14306;SDS011;7237;49.500;11.400;2024-02-14T07:33:06;5.07;;;3.23;;
14306;SDS011;7237;49.500;11.400;2024-02-14T07:35:33;3.40;;;3.10;;
14306;SDS011;7237;49.500;11.400;2024-02-14T07:38:00;7.47;;;3.13;;
14306;SDS011;7237;49.500;11.400;2024-02-14T07:40:27;3.20;;;2.90;;
14306;SDS011;7237;49.500;11.400;2024-02-14T07:42:56;5.53;;;3.30;;
14306;SDS011;7237;49.500;11.400;2024-02-14T07:45:23;5.43;;;3.50;;
14306;SDS011;7237;49.500;11.400;2024-02-14T07:47:50;6.20;;;3.10;;
14306;SDS011;7237;49.500;11.400;2024-02-14T07:50:18;3.40;;;3.10;;
14306;SDS011;7237;49.500;11.400;2024-02-14T07:52:46;4.37;;;3.20;;
14306;SDS011;7237;49.500;11.400;2024-02-14T07:55:14;4.83;;;3.40;;
14306;SDS011;7237;49.500;11.400;2024-02-14T07:57:41;6.63;;;4.50;;
14306;SDS011;7237;49.500;11.400;2024-02-14T08:00:09;7.40;;;4.40;;
14306;SDS011;7237;49.500;11.400;2024-02-14T08:02:37;6.03;;;4.23;;
14306;SDS011;7237;49.500;11.400;2024-02-14T08:05:04;8.07;;;4.47;;
14306;SDS011;7237;49.500;11.400;2024-02-14T08:07:35;6.83;;;4.33;;
14306;SDS011;7237;49.500;11.400;2024-02-14T08:10:02;6.60;;;4.10;;
14306;SDS011;7237;49.500;11.400;2024-02-14T08:12:29;7.90;;;3.70;;
14306;SDS011;7237;49.500;11.400;2024-02-14T08:14:57;5.67;;;3.97;;
14306;SDS011;7237;49.500;11.400;2024-02-14T08:17:29;5.67;;;3.57;;
14306;SDS011;7237;49.500;11.400;2024-02-14T08:19:56;4.93;;;3.40;;
14306;SDS011;7237;49.500;11.400;2024-02-14T08:22:23;4.87;;;3.27;;
14306;SDS011;7237;49.500;11.400;2024-02-14T08:24:53;4.57;;;3.20;;
14306;SDS011;7237;49.500;11.400;2024-02-14T08:27:20;5.57;;;3.53;;
14306;SDS011;7237;49.500;11.400;2024-02-14T08:29:48;3.27;;;2.97;;
14306;SDS011;7237;49.500;11.400;2024-02-14T08:32:15;3.70;;;2.80;;
14306;SDS011;7237;49.500;11.400;2024-02-14T08:34:42;3.43;;;2.77;;
14306;SDS011;7237;49.500;11.400;2024-02-14T08:37:09;7.40;;;3.97;;
14306;SDS011;7237;49.500;11.400;2024-02-14T08:39:36;8.00;;;3.30;;
14306;SDS011;7237;49.500;11.400;2024-02-14T08:42:05;4.60;;;2.67;;
14306;SDS011;7237;49.500;11.400;2024-02-14T08:44:33;4.93;;;3.07;;
14306;SDS011;7237;49.500;11.400;2024-02-14T08:47:00;3.33;;;2.83;;
14306;SDS011;7237;49.500;11.400;2024-02-14T08:49:27;4.37;;;3.07;;
14306;SDS011;7237;49.500;11.400;2024-02-14T08:51:54;5.77;;;3.37;;
14306;SDS011;7237;49.500;11.400;2024-02-14T08:54:21;7.00;;;3.50;;
14306;SDS011;7237;49.500;11.400;2024-02-14T08:56:48;4.50;;;3.30;;
14306;SDS011;7237;49.500;11.400;2024-02-14T08:59:19;9.43;;;3.30;;
14306;SDS011;7237;49.500;11.400;2024-02-14T09:01:46;6.27;;;3.23;;
14306;SDS011;7237;49.500;11.400;2024-02-14T09:04:13;10.37;;;3.60;;
14306;SDS011;7237;49.500;11.400;2024-02-14T09:06:40;6.83;;;3.10;;
14306;SDS011;7237;49.500;11.400;2024-02-14T09:09:07;5.57;;;2.70;;
14306;SDS011;7237;49.500;11.400;2024-02-14T09:11:35;6.07;;;2.60;;
14306;SDS011;7237;49.500;11.400;2024-02-14T09:14:02;5.67;;;2.23;;
14306;SDS011;7237;49.500;11.400;2024-02-14T09:16:32;3.17;;;1.90;;
14306;SDS011;7237;49.500;11.400;2024-02-14T09:18:59;4.33;;;2.30;;
14306;SDS011;7237;49.500;11.400;2024-02-14T09:21:27;3.87;;;3.00;;
14306;SDS011;7237;49.500;11.400;2024-02-14T09:23:54;2.67;;;2.10;;
14306;SDS011;7237;49.500;11.400;2024-02-14T09:26:21;3.23;;;2.30;;
14306;SDS011;7237;49.500;11.400;2024-02-14T09:28:48;3.37;;;2.40;;
14306;SDS011;7237;49.500;11.400;2024-02-14T09:31:18;4.33;;;2.40;;
14306;SDS011;7237;49.500;11.400;2024-02-14T09:33:47;4.57;;;2.63;;
14306;SDS011;7237;49.500;11.400;2024-02-14T09:36:14;4.60;;;2.80;;
14306;SDS011;7237;49.500;11.400;2024-02-14T09:38:41;2.23;;;2.00;;
14306;SDS011;7237;49.500;11.400;2024-02-14T09:41:11;3.77;;;2.13;;
14306;SDS011;7237;49.500;11.400;2024-02-14T09:43:43;2.93;;;2.20;;
14306;SDS011;7237;49.500;11.400;2024-02-14T09:46:10;4.03;;;2.17;;
14306;SDS011;7237;49.500;11.400;2024-02-14T09:48:38;2.07;;;1.70;;
14306;SDS011;7237;49.500;11.400;2024-02-14T09:51:09;3.40;;;2.00;;
14306;SDS011;7237;49.500;11.400;2024-02-14T09:53:36;5.43;;;2.30;;
14306;SDS011;7237;49.500;11.400;2024-02-14T09:56:04;4.97;;;2.73;;
14306;SDS011;7237;49.500;11.400;2024-02-14T09:58:32;5.37;;;2.60;;
14306;SDS011;7237;49.500;11.400;2024-02-14T10:00:59;5.93;;;2.70;;
14306;SDS011;7237;49.500;11.400;2024-02-14T10:03:26;4.20;;;2.70;;
14306;SDS011;7237;49.500;11.400;2024-02-14T10:05:53;6.23;;;2.93;;
14306;SDS011;7237;49.500;11.400;2024-02-14T10:08:22;6.30;;;2.77;;
14306;SDS011;7237;49.500;11.400;2024-02-14T10:10:50;3.38;;;2.40;;
14306;SDS011;7237;49.500;11.400;2024-02-14T10:13:17;4.57;;;2.23;;
14306;SDS011;7237;49.500;11.400;2024-02-14T10:15:44;6.23;;;2.50;;
14306;SDS011;7237;49.500;11.400;2024-02-14T10:18:11;3.03;;;2.17;;
14306;SDS011;7237;49.500;11.400;2024-02-14T10:20:39;2.40;;;2.20;;
14306;SDS011;7237;49.500;11.400;2024-02-14T10:23:10;2.93;;;2.07;;
14306;SDS011;7237;49.500;11.400;2024-02-14T10:25:39;5.10;;;2.60;;
14306;SDS011;7237;49.500;11.400;2024-02-14T10:28:08;5.23;;;2.37;;
14306;SDS011;7237;49.500;11.400;2024-02-14T10:30:35;3.53;;;2.17;;
14306;SDS011;7237;49.500;11.400;2024-02-14T10:33:03;3.93;;;2.40;;
14306;SDS011;7237;49.500;11.400;2024-02-14T10:35:32;4.90;;;2.50;;
14306;SDS011;7237;49.500;11.400;2024-02-14T10:38:02;3.90;;;2.80;;
14306;SDS011;7237;49.500;11.400;2024-02-14T10:40:29;3.10;;;2.10;;
14306;SDS011;7237;49.500;11.400;2024-02-14T10:42:59;4.30;;;2.20;;
14306;SDS011;7237;49.500;11.400;2024-02-14T10:45:27;4.73;;;2.03;;
14306;SDS011;7237;49.500;11.400;2024-02-14T10:47:54;2.20;;;2.00;;
14306;SDS011;7237;49.500;11.400;2024-02-14T10:50:22;4.30;;;2.17;;
14306;SDS011;7237;49.500;11.400;2024-02-14T10:52:51;2.33;;;2.10;;
14306;SDS011;7237;49.500;11.400;2024-02-14T10:55:19;5.47;;;2.40;;
14306;SDS011;7237;49.500;11.400;2024-02-14T10:57:47;2.93;;;2.10;;
14306;SDS011;7237;49.500;11.400;2024-02-14T11:00:18;3.27;;;2.17;;
14306;SDS011;7237;49.500;11.400;2024-02-14T11:02:45;2.77;;;2.00;;
14306;SDS011;7237;49.500;11.400;2024-02-14T11:05:14;2.70;;;2.07;;
14306;SDS011;7237;49.500;11.400;2024-02-14T11:07:44;4.63;;;2.43;;
14306;SDS011;7237;49.500;11.400;2024-02-14T11:10:13;4.47;;;2.10;;
14306;SDS011;7237;49.500;11.400;2024-02-14T11:12:40;6.97;;;1.73;;
14306;SDS011;7237;49.500;11.400;2024-02-14T11:15:11;2.73;;;1.90;;
14306;SDS011;7237;49.500;11.400;2024-02-14T11:17:39;2.67;;;1.87;;
14306;SDS011;7237;49.500;11.400;2024-02-14T11:20:12;3.47;;;1.90;;
14306;SDS011;7237;49.500;11.400;2024-02-14T11:22:39;2.90;;;2.00;;
14306;SDS011;7237;49.500;11.400;2024-02-14T11:25:06;4.10;;;1.87;;
14306;SDS011;7237;49.500;11.400;2024-02-14T11:27:33;3.20;;;2.00;;
14306;SDS011;7237;49.500;11.400;2024-02-14T11:30:00;2.37;;;1.80;;
14306;SDS011;7237;49.500;11.400;2024-02-14T11:32:28;2.83;;;2.10;;
14306;SDS011;7237;49.500;11.400;2024-02-14T11:34:57;3.80;;;1.90;;
14306;SDS011;7237;49.500;11.400;2024-02-14T11:37:27;2.70;;;1.60;;
14306;SDS011;7237;49.500;11.400;2024-02-14T11:39:55;2.47;;;1.87;;
14306;SDS011;7237;49.500;11.400;2024-02-14T11:42:23;4.53;;;2.10;;
14306;SDS011;7237;49.500;11.400;2024-02-14T11:44:50;5.70;;;2.07;;
14306;SDS011;7237;49.500;11.400;2024-02-14T11:47:17;3.13;;;2.20;;
14306;SDS011;7237;49.500;11.400;2024-02-14T11:49:44;2.47;;;1.87;;
14306;SDS011;7237;49.500;11.400;2024-02-14T11:52:12;2.23;;;1.70;;
14306;SDS011;7237;49.500;11.400;2024-02-14T11:54:40;2.57;;;1.47;;
14306;SDS011;7237;49.500;11.400;2024-02-14T11:57:16;3.10;;;1.90;;
14306;SDS011;7237;49.500;11.400;2024-02-14T11:59:43;2.60;;;1.80;;
14306;SDS011;7237;49.500;11.400;2024-02-14T12:02:11;3.00;;;1.63;;
14306;SDS011;7237;49.500;11.400;2024-02-14T12:04:38;1.73;;;1.50;;
14306;SDS011;7237;49.500;11.400;2024-02-14T12:07:06;5.90;;;2.57;;
14306;SDS011;7237;49.500;11.400;2024-02-14T12:09:34;4.70;;;1.90;;
14306;SDS011;7237;49.500;11.400;2024-02-14T12:12:02;4.60;;;2.43;;
14306;SDS011;7237;49.500;11.400;2024-02-14T12:14:29;4.43;;;2.00;;
14306;SDS011;7237;49.500;11.400;2024-02-14T12:16:59;2.30;;;1.90;;
14306;SDS011;7237;49.500;11.400;2024-02-14T12:19:28;3.83;;;2.00;;
14306;SDS011;7237;49.500;11.400;2024-02-14T12:21:55;3.17;;;2.10;;
14306;SDS011;7237;49.500;11.400;2024-02-14T12:24:26;1.73;;;1.63;;
14306;SDS011;7237;49.500;11.400;2024-02-14T12:26:56;3.20;;;1.90;;
14306;SDS011;7237;49.500;11.400;2024-02-14T12:29:23;3.53;;;1.73;;
14306;SDS011;7237;49.500;11.400;2024-02-14T12:31:50;3.40;;;1.87;;
14306;SDS011;7237;49.500;11.400;2024-02-14T12:34:17;3.30;;;1.90;;
14306;SDS011;7237;49.500;11.400;2024-02-14T12:36:45;3.60;;;2.23;;
14306;SDS011;7237;49.500;11.400;2024-02-14T12:39:12;4.43;;;2.13;;
14306;SDS011;7237;49.500;11.400;2024-02-14T12:41:39;3.95;;;2.05;;
14306;SDS011;7237;49.500;11.400;2024-02-14T12:44:08;2.43;;;1.70;;
14306;SDS011;7237;49.500;11.400;2024-02-14T12:46:35;2.17;;;1.33;;
14306;SDS011;7237;49.500;11.400;2024-02-14T12:49:03;5.23;;;2.20;;
14306;SDS011;7237;49.500;11.400;2024-02-14T12:51:30;3.10;;;1.77;;
14306;SDS011;7237;49.500;11.400;2024-02-14T12:53:58;2.40;;;1.70;;
14306;SDS011;7237;49.500;11.400;2024-02-14T12:56:25;1.87;;;1.33;;
14306;SDS011;7237;49.500;11.400;2024-02-14T12:58:52;1.57;;;1.20;;
14306;SDS011;7237;49.500;11.400;2024-02-14T13:01:21;3.00;;;1.43;;
14306;SDS011;7237;49.500;11.400;2024-02-14T13:03:48;2.50;;;1.30;;
14306;SDS011;7237;49.500;11.400;2024-02-14T13:06:15;3.93;;;1.73;;
14306;SDS011;7237;49.500;11.400;2024-02-14T13:08:42;3.03;;;1.50;;
14306;SDS011;7237;49.500;11.400;2024-02-14T13:11:09;2.27;;;1.37;;
14306;SDS011;7237;49.500;11.400;2024-02-14T13:13:36;5.13;;;1.63;;
14306;SDS011;7237;49.500;11.400;2024-02-14T13:16:03;2.43;;;1.33;;
14306;SDS011;7237;49.500;11.400;2024-02-14T13:18:32;2.50;;;1.43;;
14306;SDS011;7237;49.500;11.400;2024-02-14T13:21:00;1.63;;;1.33;;
14306;SDS011;7237;49.500;11.400;2024-02-14T13:23:27;3.90;;;1.53;;
14306;SDS011;7237;49.500;11.400;2024-02-14T13:25:54;2.33;;;2.10;;
14306;SDS011;7237;49.500;11.400;2024-02-14T13:28:22;5.00;;;3.53;;
14306;SDS011;7237;49.500;11.400;2024-02-14T13:30:49;5.43;;;3.27;;
14306;SDS011;7237;49.500;11.400;2024-02-14T13:33:16;5.10;;;2.10;;
14306;SDS011;7237;49.500;11.400;2024-02-14T13:35:44;2.40;;;1.87;;
14306;SDS011;7237;49.500;11.400;2024-02-14T13:38:11;3.33;;;2.57;;
14306;SDS011;7237;49.500;11.400;2024-02-14T13:40:38;3.03;;;2.30;;
14306;SDS011;7237;49.500;11.400;2024-02-14T13:43:05;4.07;;;2.43;;
14306;SDS011;7237;49.500;11.400;2024-02-14T13:45:39;3.20;;;2.33;;
14306;SDS011;7237;49.500;11.400;2024-02-14T13:48:07;2.73;;;1.87;;
14306;SDS011;7237;49.500;11.400;2024-02-14T13:50:35;2.43;;;1.90;;
14306;SDS011;7237;49.500;11.400;2024-02-14T13:53:04;6.45;;;2.50;;
14306;SDS011;7237;49.500;11.400;2024-02-14T13:55:31;2.83;;;2.07;;
14306;SDS011;7237;49.500;11.400;2024-02-14T13:57:58;2.33;;;2.00;;
14306;SDS011;7237;49.500;11.400;2024-02-14T14:00:25;2.17;;;1.63;;
14306;SDS011;7237;49.500;11.400;2024-02-14T14:02:52;4.93;;;2.47;;
14306;SDS011;7237;49.500;11.400;2024-02-14T14:05:20;2.00;;;1.57;;
14306;SDS011;7237;49.500;11.400;2024-02-14T14:07:47;4.40;;;1.93;;
14306;SDS011;7237;49.500;11.400;2024-02-14T14:10:15;4.23;;;1.93;;
14306;SDS011;7237;49.500;11.400;2024-02-14T14:12:42;2.77;;;1.50;;
14306;SDS011;7237;49.500;11.400;2024-02-14T14:15:09;5.43;;;1.77;;
14306;SDS011;7237;49.500;11.400;2024-02-14T14:17:36;2.53;;;1.50;;
14306;SDS011;7237;49.500;11.400;2024-02-14T14:20:04;5.23;;;2.33;;
14306;SDS011;7237;49.500;11.400;2024-02-14T14:22:33;2.30;;;2.07;;
14306;SDS011;7237;49.500;11.400;2024-02-14T14:25:00;3.73;;;2.77;;
14306;SDS011;7237;49.500;11.400;2024-02-14T14:27:31;2.83;;;2.20;;
14306;SDS011;7237;49.500;11.400;2024-02-14T14:29:58;5.13;;;2.83;;
14306;SDS011;7237;49.500;11.400;2024-02-14T14:32:25;3.53;;;1.80;;
14306;SDS011;7237;49.500;11.400;2024-02-14T14:34:52;3.17;;;1.90;;
14306;SDS011;7237;49.500;11.400;2024-02-14T14:37:19;5.07;;;2.13;;
14306;SDS011;7237;49.500;11.400;2024-02-14T14:39:48;4.80;;;2.13;;
14306;SDS011;7237;49.500;11.400;2024-02-14T14:42:15;2.47;;;2.10;;
14306;SDS011;7237;49.500;11.400;2024-02-14T14:44:44;4.63;;;2.37;;
14306;SDS011;7237;49.500;11.400;2024-02-14T14:47:11;3.63;;;2.63;;
14306;SDS011;7237;49.500;11.400;2024-02-14T14:49:38;2.03;;;1.93;;